createdAt,value
2017-09-20T00:01:00.724Z,12.40
2017-09-20T00:03:28.321Z,12.40
2017-09-20T00:05:57.776Z,11.30
2017-09-20T00:08:25.434Z,11.50
2017-09-20T00:10:53.001Z,12.90
2017-09-20T00:13:20.577Z,14.17
2017-09-20T00:15:48.173Z,12.70
2017-09-20T00:18:16.504Z,12.90
2017-09-20T00:20:44.095Z,15.27
2017-09-20T00:23:11.661Z,13.50
2017-09-20T00:25:39.256Z,13.87
2017-09-20T00:28:06.819Z,14.37
2017-09-20T00:30:34.545Z,14.00
2017-09-20T00:33:02.108Z,13.00
2017-09-20T00:35:29.677Z,13.00
2017-09-20T00:37:59.581Z,14.20
2017-09-20T00:40:27.153Z,12.70
2017-09-20T00:42:56.436Z,13.40
2017-09-20T00:45:24.051Z,13.90
2017-09-20T00:47:51.673Z,13.27
2017-09-20T00:50:20.004Z,14.77
2017-09-20T00:52:47.568Z,13.10
2017-09-20T00:55:15.152Z,12.60
2017-09-20T00:57:42.720Z,14.87
2017-09-20T01:00:10.321Z,15.38
2017-09-20T01:02:37.893Z,14.93
2017-09-20T01:05:05.488Z,14.67
2017-09-20T01:07:33.075Z,13.63
2017-09-20T01:10:00.661Z,14.97
2017-09-20T01:12:28.252Z,14.70
2017-09-20T01:14:58.198Z,14.52
2017-09-20T01:17:26.236Z,16.20
2017-09-20T01:19:53.948Z,16.80
2017-09-20T01:22:33.742Z,16.17
2017-09-20T01:25:01.615Z,17.07
2017-09-20T01:27:29.237Z,14.33
2017-09-20T01:29:57.133Z,15.90
2017-09-20T01:32:24.728Z,16.07
2017-09-20T01:34:52.296Z,15.33
2017-09-20T01:37:19.888Z,15.33
2017-09-20T01:39:48.219Z,14.67
2017-09-20T01:42:15.833Z,14.48
2017-09-20T01:44:44.165Z,15.37
2017-09-20T01:47:11.748Z,14.70
2017-09-20T01:49:39.340Z,14.50
2017-09-20T01:52:06.916Z,15.27
2017-09-20T01:54:34.500Z,15.20
2017-09-20T01:57:02.065Z,14.93
2017-09-20T01:59:29.748Z,16.40
2017-09-20T02:01:59.025Z,13.60
2017-09-20T02:04:26.728Z,15.07
2017-09-20T02:06:55.988Z,15.03
2017-09-20T02:09:23.554Z,15.97
2017-09-20T02:11:51.155Z,15.00
2017-09-20T02:14:19.500Z,16.67
2017-09-20T02:16:47.094Z,18.33
2017-09-20T02:19:15.440Z,18.10
2017-09-20T02:21:43.024Z,17.70
2017-09-20T02:24:10.604Z,16.30
2017-09-20T02:26:38.239Z,18.80
2017-09-20T02:29:05.912Z,16.33
2017-09-20T02:31:33.499Z,17.20
2017-09-20T02:34:01.063Z,18.85
2017-09-20T02:36:28.685Z,19.83
2017-09-20T02:38:58.789Z,17.77
2017-09-20T02:41:26.520Z,18.13
2017-09-20T02:43:54.092Z,18.83
2017-09-20T02:46:21.652Z,20.53
2017-09-20T02:48:49.244Z,17.90
2017-09-20T02:51:18.356Z,17.87
2017-09-20T02:53:46.720Z,18.67
2017-09-20T02:56:14.280Z,19.70
2017-09-20T02:58:41.892Z,18.47
2017-09-20T03:01:09.466Z,19.02
2017-09-20T03:03:37.032Z,19.10
2017-09-20T03:06:04.916Z,18.70
2017-09-20T03:08:32.504Z,18.93
2017-09-20T03:11:00.101Z,19.17
2017-09-20T03:13:27.728Z,18.67
2017-09-20T03:15:56.808Z,19.43
2017-09-20T03:18:24.372Z,18.87
2017-09-20T03:20:54.939Z,18.92
2017-09-20T03:23:23.294Z,20.50
2017-09-20T03:25:50.889Z,20.60
2017-09-20T03:28:18.459Z,27.57
2017-09-20T03:30:46.060Z,31.20
2017-09-20T03:33:13.651Z,24.20
2017-09-20T03:35:42.455Z,31.23
2017-09-20T03:38:10.024Z,31.30
2017-09-20T03:40:37.592Z,29.27
2017-09-20T03:43:05.397Z,29.47
2017-09-20T03:45:32.972Z,33.13
2017-09-20T03:48:00.550Z,45.80
2017-09-20T03:50:28.911Z,34.07
2017-09-20T03:52:58.831Z,30.90
2017-09-20T03:55:27.195Z,32.20
2017-09-20T03:57:54.756Z,26.60
2017-09-20T04:00:22.347Z,31.30
2017-09-20T04:02:50.684Z,29.10
2017-09-20T04:05:18.276Z,30.40
2017-09-20T04:07:46.615Z,25.97
2017-09-20T04:10:14.220Z,31.20
2017-09-20T04:12:42.557Z,35.57
2017-09-20T04:15:10.153Z,27.50
2017-09-20T04:17:38.499Z,29.20
2017-09-20T04:20:06.116Z,26.63
2017-09-20T04:22:34.452Z,26.90
2017-09-20T04:25:02.024Z,27.33
2017-09-20T04:27:29.625Z,31.77
2017-09-20T04:29:58.740Z,30.00
2017-09-20T04:32:26.452Z,23.87
2017-09-20T04:34:54.029Z,30.30
2017-09-20T04:37:22.372Z,33.20
2017-09-20T04:39:49.964Z,29.63
2017-09-20T04:42:18.305Z,35.07
2017-09-20T04:44:45.917Z,39.77
2017-09-20T04:47:14.270Z,32.37
2017-09-20T04:49:41.848Z,35.50
2017-09-20T04:52:10.204Z,36.70
2017-09-20T04:54:37.796Z,35.97
2017-09-20T04:57:05.432Z,38.03
2017-09-20T04:59:34.532Z,43.60
2017-09-20T05:02:03.608Z,38.15
2017-09-20T05:04:31.210Z,46.23
2017-09-20T05:06:59.740Z,51.33
2017-09-20T05:09:27.332Z,36.87
2017-09-20T05:11:54.900Z,34.13
2017-09-20T05:14:23.256Z,39.57
2017-09-20T05:16:50.824Z,34.73
2017-09-20T05:19:18.597Z,36.53
2017-09-20T05:21:46.945Z,37.30
2017-09-20T05:24:14.516Z,38.77
2017-09-20T05:26:42.116Z,41.10
2017-09-20T05:29:10.576Z,37.45
2017-09-20T05:31:38.148Z,43.10
2017-09-20T05:34:06.681Z,40.27
2017-09-20T05:36:34.490Z,42.43
2017-09-20T05:39:02.141Z,43.60
2017-09-20T05:41:29.712Z,42.30
2017-09-20T05:43:59.528Z,39.37
2017-09-20T05:46:27.120Z,35.35
2017-09-20T05:48:54.689Z,43.30
2017-09-20T05:51:22.289Z,52.63
2017-09-20T05:53:49.856Z,40.10
2017-09-20T05:56:19.068Z,40.90
2017-09-20T05:58:46.641Z,41.93
2017-09-20T06:01:14.976Z,39.70
2017-09-20T06:03:42.571Z,44.57
2017-09-20T06:06:10.169Z,37.65
2017-09-20T06:08:37.768Z,37.03
2017-09-20T06:11:05.341Z,39.37
2017-09-20T06:13:32.952Z,30.03
2017-09-20T06:16:00.522Z,33.20
2017-09-20T06:18:28.089Z,29.73
2017-09-20T06:20:55.968Z,28.83
2017-09-20T06:23:23.544Z,30.40
2017-09-20T06:25:51.136Z,28.42
2017-09-20T06:28:19.469Z,29.70
2017-09-20T06:30:47.064Z,30.15
2017-09-20T06:33:14.636Z,29.52
2017-09-20T06:35:43.200Z,31.13
2017-09-20T06:38:10.769Z,29.00
2017-09-20T06:40:38.332Z,28.00
2017-09-20T06:43:06.696Z,25.83
2017-09-20T06:45:34.648Z,28.57
2017-09-20T06:48:02.242Z,27.25
2017-09-20T06:50:30.584Z,25.60
2017-09-20T06:52:59.716Z,23.05
2017-09-20T06:55:27.291Z,28.63
2017-09-20T06:57:56.572Z,27.58
2017-09-20T07:00:24.145Z,22.50
2017-09-20T07:02:52.529Z,24.83
2017-09-20T07:05:20.870Z,27.27
2017-09-20T07:07:48.456Z,26.67
2017-09-20T07:10:16.107Z,24.87
2017-09-20T07:12:43.688Z,26.80
2017-09-20T07:15:12.058Z,27.93
2017-09-20T07:17:40.408Z,27.50
2017-09-20T07:20:08.004Z,27.00
2017-09-20T07:22:36.352Z,27.97
2017-09-20T07:25:04.136Z,27.30
2017-09-20T07:27:31.716Z,24.90
2017-09-20T07:30:00.052Z,24.87
2017-09-20T07:32:27.644Z,26.40
2017-09-20T07:34:56.136Z,27.37
2017-09-20T07:37:24.514Z,25.97
2017-09-20T07:39:52.852Z,25.77
2017-09-20T07:42:20.424Z,25.50
2017-09-20T07:44:48.016Z,25.73
2017-09-20T07:47:16.357Z,27.20
2017-09-20T07:49:43.951Z,27.03
2017-09-20T07:52:12.292Z,26.17
2017-09-20T07:54:39.984Z,26.13
2017-09-20T07:57:07.561Z,27.87
2017-09-20T07:59:35.921Z,24.08
2017-09-20T08:02:03.497Z,22.77
2017-09-20T08:04:31.859Z,26.52
2017-09-20T08:06:59.432Z,22.90
2017-09-20T08:09:28.005Z,24.00
2017-09-20T08:11:57.080Z,18.95
2017-09-20T08:14:24.690Z,19.43
2017-09-20T08:16:52.284Z,17.13
2017-09-20T08:19:19.889Z,18.95
2017-09-20T08:21:48.248Z,16.33
2017-09-20T08:24:15.820Z,17.48
2017-09-20T08:26:44.204Z,16.27
2017-09-20T08:29:11.776Z,16.27
2017-09-20T08:31:40.148Z,15.17
2017-09-20T08:34:07.724Z,15.40
2017-09-20T08:36:36.095Z,16.37
2017-09-20T08:39:04.432Z,16.77
2017-09-20T08:41:32.008Z,14.43
2017-09-20T08:43:59.599Z,15.60
2017-09-20T08:46:27.941Z,15.33
2017-09-20T08:48:57.668Z,13.65
2017-09-20T08:51:26.016Z,12.97
2017-09-20T08:53:53.627Z,11.87
2017-09-20T08:56:21.972Z,12.43
2017-09-20T08:58:49.940Z,11.80
2017-09-20T09:01:17.543Z,9.17
2017-09-20T09:03:45.880Z,10.23
2017-09-20T09:06:13.492Z,9.27
2017-09-20T09:08:41.069Z,9.07
2017-09-20T09:11:08.648Z,9.30
2017-09-20T09:13:36.240Z,8.70
2017-09-20T09:16:03.808Z,7.97
2017-09-20T09:18:32.164Z,8.90
2017-09-20T09:20:59.728Z,6.80
2017-09-20T09:23:27.332Z,6.20
2017-09-20T09:25:56.583Z,8.17
2017-09-20T09:28:24.172Z,6.30
2017-09-20T09:30:51.736Z,7.90
2017-09-20T09:33:20.091Z,6.60
2017-09-20T09:35:47.664Z,7.00
2017-09-20T09:38:15.332Z,6.32
2017-09-20T09:40:42.992Z,7.00
2017-09-20T09:43:10.592Z,6.80
2017-09-20T09:45:38.209Z,6.23
2017-09-20T09:48:05.816Z,5.90
2017-09-20T09:50:33.415Z,7.10
2017-09-20T09:53:01.106Z,5.57
2017-09-20T09:55:28.705Z,6.33
2017-09-20T09:57:58.236Z,3.27
2017-09-20T10:00:26.648Z,2.27
2017-09-20T10:02:54.213Z,4.80
2017-09-20T10:05:22.575Z,5.17
2017-09-20T10:07:50.136Z,3.30
2017-09-20T10:10:18.811Z,3.10
2017-09-20T10:12:46.381Z,3.00
2017-09-20T10:15:13.972Z,2.70
2017-09-20T10:17:42.305Z,2.70
2017-09-20T10:20:09.892Z,2.93
2017-09-20T10:22:38.229Z,3.60
2017-09-20T10:25:05.820Z,4.35
2017-09-20T10:27:33.386Z,4.10
2017-09-20T10:30:00.984Z,4.30
2017-09-20T10:32:29.312Z,4.00
2017-09-20T10:34:57.011Z,3.40
2017-09-20T10:37:25.368Z,3.67
2017-09-20T10:39:54.441Z,3.07
2017-09-20T10:42:22.057Z,2.95
2017-09-20T10:44:50.393Z,2.80
2017-09-20T10:47:17.984Z,2.87
2017-09-20T10:49:45.606Z,2.67
2017-09-20T10:52:13.201Z,2.78
2017-09-20T10:54:40.784Z,2.50
2017-09-20T10:57:09.240Z,2.70
2017-09-20T10:59:36.895Z,2.30
2017-09-20T11:02:04.564Z,2.40
2017-09-20T11:04:32.130Z,1.70
2017-09-20T11:06:59.720Z,1.80
2017-09-20T11:09:27.636Z,1.70
2017-09-20T11:11:56.124Z,1.40
2017-09-20T11:14:23.758Z,1.17
2017-09-20T11:16:51.328Z,1.30
2017-09-20T11:19:18.915Z,1.30
2017-09-20T11:21:46.476Z,1.70
2017-09-20T11:24:14.072Z,1.47
2017-09-20T11:26:41.636Z,1.50
2017-09-20T11:29:09.248Z,1.50
2017-09-20T11:31:36.811Z,1.70
2017-09-20T11:34:04.371Z,1.67
2017-09-20T11:36:32.286Z,1.23
2017-09-20T11:38:59.911Z,1.60
2017-09-20T11:41:28.244Z,1.70
2017-09-20T11:43:57.784Z,1.30
2017-09-20T11:46:25.481Z,1.50
2017-09-20T11:48:53.817Z,1.60
2017-09-20T11:51:21.504Z,1.70
2017-09-20T11:53:49.164Z,1.73
2017-09-20T11:56:16.775Z,1.70
2017-09-20T11:58:44.388Z,1.83
2017-09-20T12:01:11.957Z,2.20
2017-09-20T12:03:40.331Z,1.90
2017-09-20T12:06:07.899Z,2.00
2017-09-20T12:08:35.488Z,2.60
2017-09-20T12:11:03.064Z,2.40
2017-09-20T12:13:30.656Z,2.20
2017-09-20T12:15:58.954Z,1.67
2017-09-20T12:18:26.548Z,1.90
2017-09-20T12:20:54.108Z,1.60
2017-09-20T12:23:21.719Z,0.80
2017-09-20T12:25:49.291Z,1.07
2017-09-20T12:28:16.956Z,1.07
2017-09-20T12:30:44.621Z,1.30
2017-09-20T12:33:12.280Z,1.00
2017-09-20T12:35:39.940Z,1.10
2017-09-20T12:38:07.495Z,1.15
2017-09-20T12:40:35.080Z,1.10
2017-09-20T12:43:03.439Z,1.30
2017-09-20T12:45:31.025Z,1.50
2017-09-20T12:47:58.983Z,1.67
2017-09-20T12:50:26.637Z,1.30
2017-09-20T12:52:54.215Z,1.00
2017-09-20T12:55:22.544Z,1.47
2017-09-20T12:57:50.123Z,1.30
2017-09-20T13:00:17.679Z,1.30
2017-09-20T13:02:45.363Z,1.40
2017-09-20T13:05:12.925Z,1.42
2017-09-20T13:07:41.296Z,1.20
2017-09-20T13:10:08.859Z,1.42
2017-09-20T13:12:36.441Z,1.40
2017-09-20T13:15:05.085Z,1.48
2017-09-20T13:17:32.668Z,1.40
2017-09-20T13:20:00.239Z,1.47
2017-09-20T13:22:28.603Z,1.70
2017-09-20T13:24:57.079Z,1.45
2017-09-20T13:27:24.747Z,1.67
2017-09-20T13:29:52.303Z,2.17
2017-09-20T13:32:19.864Z,2.23
2017-09-20T13:34:47.524Z,2.73
2017-09-20T13:37:15.095Z,2.20
2017-09-20T13:39:42.671Z,2.60
2017-09-20T13:42:10.999Z,2.20
2017-09-20T13:44:38.576Z,2.37
2017-09-20T13:47:06.127Z,2.63
2017-09-20T13:49:33.817Z,2.90
2017-09-20T13:52:01.379Z,2.40
2017-09-20T13:54:29.031Z,2.17
2017-09-20T13:56:57.893Z,2.40
2017-09-20T13:59:25.463Z,2.30
2017-09-20T14:01:53.047Z,2.70
2017-09-20T14:04:20.607Z,3.27
2017-09-20T14:06:48.271Z,2.93
2017-09-20T14:09:15.835Z,3.00
2017-09-20T14:11:44.411Z,3.20
2017-09-20T14:14:11.987Z,3.10
2017-09-20T14:16:39.580Z,3.67
2017-09-20T14:19:07.142Z,3.08
2017-09-20T14:21:34.697Z,3.03
2017-09-20T14:24:02.287Z,2.45
2017-09-20T14:26:29.888Z,2.93
2017-09-20T14:28:58.918Z,2.70
2017-09-20T14:31:26.471Z,2.47
2017-09-20T14:33:55.019Z,3.00
2017-09-20T14:36:22.576Z,2.10
2017-09-20T14:38:50.136Z,2.20
2017-09-20T14:41:17.724Z,2.57
2017-09-20T14:43:46.052Z,1.97
2017-09-20T14:46:13.647Z,2.30
2017-09-20T14:48:41.207Z,2.30
2017-09-20T14:51:09.103Z,2.08
2017-09-20T14:53:37.448Z,2.27
2017-09-20T14:56:05.012Z,2.93
2017-09-20T14:58:32.597Z,2.30
2017-09-20T15:01:00.923Z,2.00
2017-09-20T15:03:28.611Z,2.03
2017-09-20T15:05:57.924Z,2.70
2017-09-20T15:08:26.491Z,2.77
2017-09-20T15:10:54.047Z,2.08
2017-09-20T15:13:21.608Z,2.03
2017-09-20T15:15:49.186Z,2.37
2017-09-20T15:18:16.748Z,2.37
2017-09-20T15:20:44.741Z,2.50
2017-09-20T15:23:13.072Z,2.60
2017-09-20T15:25:40.660Z,2.97
2017-09-20T15:28:08.218Z,2.90
2017-09-20T15:30:35.807Z,2.60
2017-09-20T15:33:03.372Z,2.45
2017-09-20T15:35:31.199Z,2.27
2017-09-20T15:37:58.983Z,2.60
2017-09-20T15:40:27.308Z,2.57
2017-09-20T15:42:54.897Z,2.80
2017-09-20T15:45:22.452Z,2.87
2017-09-20T15:47:50.041Z,2.95
2017-09-20T15:50:18.369Z,2.90
2017-09-20T15:52:45.950Z,2.70
2017-09-20T15:55:13.519Z,2.57
2017-09-20T15:57:41.184Z,3.50
2017-09-20T16:00:08.739Z,3.05
2017-09-20T16:02:36.407Z,2.90
2017-09-20T16:05:03.987Z,3.30
2017-09-20T16:07:32.310Z,3.30
2017-09-20T16:09:59.894Z,3.20
2017-09-20T16:12:27.461Z,3.57
2017-09-20T16:14:56.736Z,3.50
2017-09-20T16:17:24.300Z,2.90
2017-09-20T16:19:52.091Z,3.10
2017-09-20T16:22:19.651Z,3.67
2017-09-20T16:24:47.206Z,3.00
2017-09-20T16:27:14.798Z,3.17
2017-09-20T16:29:43.124Z,3.80
2017-09-20T16:32:10.715Z,3.67
2017-09-20T16:34:38.270Z,2.83
2017-09-20T16:37:07.475Z,3.50
2017-09-20T16:39:35.044Z,4.12
2017-09-20T16:42:03.368Z,3.70
2017-09-20T16:44:30.958Z,3.53
2017-09-20T16:46:59.968Z,3.62
2017-09-20T16:49:27.572Z,3.70
2017-09-20T16:51:56.053Z,3.50
2017-09-20T16:54:23.646Z,3.80
2017-09-20T16:56:51.207Z,3.80
2017-09-20T16:59:18.803Z,3.83
2017-09-20T17:01:46.360Z,3.70
2017-09-20T17:04:14.724Z,4.30
2017-09-20T17:06:42.291Z,3.87
2017-09-20T17:09:09.852Z,4.10
2017-09-20T17:11:37.515Z,4.10
2017-09-20T17:14:05.092Z,3.90
2017-09-20T17:16:33.444Z,4.60
2017-09-20T17:19:01.031Z,3.83
2017-09-20T17:21:29.395Z,4.30
2017-09-20T17:23:58.760Z,4.50
2017-09-20T17:26:26.359Z,4.77
2017-09-20T17:28:53.948Z,4.93
2017-09-20T17:31:22.274Z,4.50
2017-09-20T17:33:49.876Z,4.93
2017-09-20T17:36:18.202Z,4.53
2017-09-20T17:38:46.039Z,4.50
2017-09-20T17:41:13.767Z,5.70
2017-09-20T17:43:41.395Z,6.63
2017-09-20T17:46:09.063Z,6.87
2017-09-20T17:48:36.623Z,6.13
2017-09-20T17:51:05.228Z,6.67
2017-09-20T17:53:32.812Z,6.47
2017-09-20T17:56:00.375Z,6.33
2017-09-20T17:58:28.820Z,6.50
2017-09-20T18:00:58.829Z,6.83
2017-09-20T18:03:26.415Z,6.80
2017-09-20T18:05:53.979Z,7.13
2017-09-20T18:08:21.613Z,8.30
2017-09-20T18:10:49.171Z,7.93
2017-09-20T18:13:17.120Z,8.00
2017-09-20T18:15:44.732Z,8.77
2017-09-20T18:18:12.295Z,9.60
2017-09-20T18:20:40.054Z,10.60
2017-09-20T18:23:07.619Z,11.13
2017-09-20T18:25:35.188Z,11.20
2017-09-20T18:28:02.783Z,10.38
2017-09-20T18:30:30.348Z,10.37
2017-09-20T18:32:59.704Z,10.45
2017-09-20T18:35:27.808Z,9.80
2017-09-20T18:37:56.203Z,9.33
2017-09-20T18:40:23.815Z,8.30
2017-09-20T18:42:52.201Z,8.87
2017-09-20T18:45:19.765Z,9.77
2017-09-20T18:47:47.456Z,9.17
2017-09-20T18:50:15.019Z,10.55
2017-09-20T18:52:42.638Z,11.27
2017-09-20T18:55:10.280Z,9.83
2017-09-20T18:57:37.933Z,10.68
2017-09-20T19:00:05.568Z,11.97
2017-09-20T19:02:33.192Z,11.03
2017-09-20T19:05:02.693Z,10.90
2017-09-20T19:07:30.427Z,11.23
2017-09-20T19:09:59.203Z,10.70
2017-09-20T19:12:26.886Z,9.73
2017-09-20T19:14:54.504Z,11.20
2017-09-20T19:17:22.840Z,11.13
2017-09-20T19:19:50.424Z,9.93
2017-09-20T19:22:18.034Z,12.10
2017-09-20T19:24:45.624Z,11.63
2017-09-20T19:27:13.191Z,11.10
2017-09-20T19:29:42.292Z,10.03
2017-09-20T19:32:09.911Z,12.50
2017-09-20T19:34:37.517Z,12.70
2017-09-20T19:37:05.178Z,12.83
2017-09-20T19:39:32.852Z,11.70
2017-09-20T19:42:02.864Z,13.38
2017-09-20T19:44:30.465Z,12.60
2017-09-20T19:46:58.088Z,11.87
2017-09-20T19:49:25.847Z,12.10
2017-09-20T19:51:53.415Z,11.83
2017-09-20T19:54:21.047Z,11.07
2017-09-20T19:56:48.635Z,12.03
2017-09-20T19:59:16.255Z,11.30
2017-09-20T20:01:43.903Z,10.03
2017-09-20T20:04:11.518Z,10.68
2017-09-20T20:06:39.170Z,10.50
2017-09-20T20:09:06.917Z,10.40
2017-09-20T20:11:34.806Z,9.77
2017-09-20T20:14:02.672Z,9.77
2017-09-20T20:16:30.540Z,9.80
2017-09-20T20:18:59.329Z,10.30
2017-09-20T20:21:27.271Z,9.67
2017-09-20T20:23:55.044Z,10.40
2017-09-20T20:26:22.676Z,10.53
2017-09-20T20:28:50.491Z,10.60
2017-09-20T20:31:18.359Z,10.57
2017-09-20T20:33:46.226Z,11.43
2017-09-20T20:36:14.093Z,10.57
2017-09-20T20:38:41.961Z,10.83
2017-09-20T20:41:10.035Z,10.93
2017-09-20T20:43:37.900Z,11.67
2017-09-20T20:46:05.768Z,12.07
2017-09-20T20:48:33.411Z,12.70
2017-09-20T20:51:03.119Z,12.18
2017-09-20T20:53:30.759Z,12.67
2017-09-20T20:55:59.445Z,14.13
2017-09-20T20:58:27.088Z,12.13
2017-09-20T21:00:55.475Z,14.07
2017-09-20T21:03:23.152Z,11.97
2017-09-20T21:05:50.775Z,12.80
2017-09-20T21:08:18.482Z,12.50
2017-09-20T21:10:46.124Z,14.03
2017-09-20T21:13:13.747Z,13.60
2017-09-20T21:15:41.557Z,13.30
2017-09-20T21:18:09.244Z,13.07
2017-09-20T21:20:36.840Z,13.17
2017-09-20T21:23:04.460Z,13.73
2017-09-20T21:25:32.280Z,15.50
2017-09-20T21:28:01.461Z,14.38
2017-09-20T21:30:29.027Z,14.63
2017-09-20T21:32:56.757Z,13.70
2017-09-20T21:35:24.340Z,15.17
2017-09-20T21:37:51.987Z,15.40
2017-09-20T21:40:19.561Z,14.60
2017-09-20T21:42:47.160Z,15.37
2017-09-20T21:45:15.549Z,15.07
2017-09-20T21:47:43.920Z,15.20
2017-09-20T21:50:12.949Z,15.85
2017-09-20T21:52:40.521Z,15.37
2017-09-20T21:55:08.123Z,14.70
2017-09-20T21:57:35.883Z,16.00
2017-09-20T22:00:03.455Z,16.00
2017-09-20T22:02:31.796Z,18.30
2017-09-20T22:05:01.948Z,16.00
2017-09-20T22:07:29.525Z,16.70
2017-09-20T22:09:57.890Z,16.50
2017-09-20T22:12:25.460Z,16.93
2017-09-20T22:14:53.513Z,15.60
2017-09-20T22:17:32.927Z,17.73
2017-09-20T22:20:14.704Z,18.00
2017-09-20T22:22:54.224Z,16.87
2017-09-20T22:25:33.825Z,17.83
2017-09-20T22:28:02.812Z,17.83
2017-09-20T22:30:30.587Z,17.50
2017-09-20T22:32:59.178Z,17.77
2017-09-20T22:35:28.251Z,18.40
2017-09-20T22:37:55.837Z,18.03
2017-09-20T22:40:23.402Z,20.03
2017-09-20T22:42:51.971Z,18.33
2017-09-20T22:45:19.541Z,18.53
2017-09-20T22:47:48.618Z,20.00
2017-09-20T22:50:16.212Z,18.75
2017-09-20T22:52:44.781Z,19.70
2017-09-20T22:55:12.347Z,19.60
2017-09-20T22:57:40.000Z,19.17
2017-09-20T23:00:07.591Z,18.25
2017-09-20T23:02:35.947Z,17.70
2017-09-20T23:05:04.324Z,17.10
2017-09-20T23:07:33.404Z,17.80
2017-09-20T23:10:02.947Z,19.35
2017-09-20T23:12:31.289Z,18.07
2017-09-20T23:14:59.893Z,18.73
2017-09-20T23:17:28.233Z,18.30
2017-09-20T23:19:55.833Z,19.83
2017-09-20T23:22:24.196Z,18.03
2017-09-20T23:24:51.765Z,19.20
2017-09-20T23:27:19.363Z,20.73
2017-09-20T23:29:46.933Z,18.33
2017-09-20T23:32:14.524Z,19.15
2017-09-20T23:34:42.093Z,17.83
2017-09-20T23:37:09.774Z,19.73
2017-09-20T23:39:37.344Z,18.60
2017-09-20T23:42:05.680Z,19.55
2017-09-20T23:44:33.376Z,19.63
2017-09-20T23:47:02.764Z,19.77
2017-09-20T23:49:30.445Z,19.17
2017-09-20T23:51:59.748Z,19.20
2017-09-20T23:54:28.109Z,21.47
2017-09-20T23:56:55.715Z,19.43
2017-09-20T23:59:24.072Z,20.90
